createdAt,value
2019-04-21T00:00:21.037Z,101836.84
2019-04-21T00:01:05.041Z,101843.38
2019-04-21T00:01:39.666Z,101839.46
2019-04-21T00:02:06.166Z,101838.16
2019-04-21T00:02:39.737Z,101838.16
2019-04-21T00:03:18.181Z,101836.03
2019-04-21T00:03:50.284Z,101838.16
2019-04-21T00:04:30.712Z,101833.83
2019-04-21T00:05:10.751Z,101833.47
2019-04-21T00:05:45.841Z,101830.14
2019-04-21T00:06:15.641Z,101835.42
2019-04-21T00:06:51.062Z,101835.86
2019-04-21T00:07:22.185Z,101832.81
2019-04-21T00:08:05.059Z,101829.73
2019-04-21T00:08:45.856Z,101811.86
2019-04-21T00:09:02.698Z,101838.05
2019-04-21T00:09:42.634Z,101833.25
2019-04-21T00:10:12.090Z,101828.02
2019-04-21T00:10:40.092Z,101831.09
2019-04-21T00:11:17.168Z,101824.73
2019-04-21T00:11:49.690Z,101834.85
2019-04-21T00:12:17.964Z,101829.63
2019-04-21T00:12:52.028Z,101824.88
2019-04-21T00:13:23.843Z,101834.13
2019-04-21T00:13:56.148Z,101828.46
2019-04-21T00:14:26.909Z,101828.46
2019-04-21T00:15:01.966Z,101834.13
2019-04-21T00:15:31.081Z,101830.12
2019-04-21T00:16:00.229Z,101826.20
2019-04-21T00:16:39.076Z,101828.66
2019-04-21T00:17:09.682Z,101826.86
2019-04-21T00:17:38.963Z,101835.61
2019-04-21T00:18:13.832Z,101809.30
2019-04-21T00:18:57.516Z,101809.30
2019-04-21T00:19:29.791Z,101828.08
2019-04-21T00:20:15.471Z,101831.94
2019-04-21T00:20:42.440Z,101824.00
2019-04-21T00:21:20.514Z,101829.64
2019-04-21T00:21:49.212Z,101826.07
2019-04-21T00:22:31.538Z,101832.66
2019-04-21T00:23:05.889Z,101829.23
2019-04-21T00:23:39.648Z,101827.12
2019-04-21T00:24:24.243Z,101819.99
2019-04-21T00:24:59.538Z,101819.99
2019-04-21T00:25:32.051Z,101805.48
2019-04-21T00:26:02.072Z,101819.94
2019-04-21T00:26:40.281Z,101823.02
2019-04-21T00:27:13.888Z,101823.51
2019-04-21T00:27:47.395Z,101817.06
2019-04-21T00:28:25.369Z,101816.71
2019-04-21T00:28:59.587Z,101812.87
2019-04-21T00:29:30.340Z,101798.38
2019-04-21T00:30:04.574Z,101809.22
2019-04-21T00:30:40.067Z,101809.22
2019-04-21T00:31:06.502Z,101811.42
2019-04-21T00:31:38.040Z,101784.02
2019-04-21T00:32:10.101Z,101809.13
2019-04-21T00:32:41.969Z,101813.95
2019-04-21T00:33:12.280Z,101813.40
2019-04-21T00:33:40.989Z,101812.00
2019-04-21T00:34:11.286Z,101815.42
2019-04-21T00:34:52.322Z,101815.78
2019-04-21T00:35:19.598Z,101809.50
2019-04-21T00:35:57.732Z,101793.16
2019-04-21T00:36:29.334Z,101810.38
2019-04-21T00:37:05.780Z,101810.23
2019-04-21T00:37:49.369Z,101811.05
2019-04-21T00:38:26.236Z,101807.88
2019-04-21T00:39:07.118Z,101814.41
2019-04-21T00:39:36.448Z,101807.29
2019-04-21T00:40:06.168Z,101806.73
2019-04-21T00:40:36.137Z,101803.97
2019-04-21T00:41:16.096Z,101811.31
2019-04-21T00:41:43.752Z,101803.83
2019-04-21T00:42:13.946Z,101808.05
2019-04-21T00:42:43.655Z,101810.77
2019-04-21T00:43:19.800Z,101800.22
2019-04-21T00:43:52.160Z,101799.31
2019-04-21T00:44:17.349Z,101802.92
2019-04-21T00:44:58.236Z,101802.98
2019-04-21T00:45:27.522Z,101796.04
2019-04-21T00:45:57.807Z,101803.16
2019-04-21T00:46:34.814Z,101799.23
2019-04-21T00:47:08.542Z,101798.48
2019-04-21T00:47:46.196Z,101793.35
2019-04-21T00:48:25.829Z,101791.14
2019-04-21T00:48:53.590Z,101795.06
2019-04-21T00:49:23.182Z,101791.61
2019-04-21T00:50:05.203Z,101791.55
2019-04-21T00:50:48.754Z,101796.83
2019-04-21T00:52:07.551Z,101796.78
2019-04-21T00:52:41.250Z,101794.66
2019-04-21T00:53:22.471Z,101794.72
2019-04-21T00:54:01.357Z,101794.72
2019-04-21T00:54:41.697Z,101797.33
2019-04-21T00:55:25.058Z,101795.06
2019-04-21T00:55:53.564Z,101791.95
2019-04-21T00:56:35.370Z,101790.15
2019-04-21T00:56:56.931Z,101790.96
2019-04-21T00:57:27.417Z,101787.88
2019-04-21T00:58:37.122Z,101791.80
2019-04-21T00:59:05.714Z,101786.58
2019-04-21T00:59:40.279Z,101785.67
2019-04-21T01:00:11.665Z,101788.20
2019-04-21T01:00:46.460Z,101788.20
2019-04-21T01:01:14.964Z,101771.98
2019-04-21T01:01:47.971Z,101785.75
2019-04-21T01:02:26.119Z,101784.79
2019-04-21T01:02:56.092Z,101791.17
2019-04-21T01:03:36.173Z,101785.76
2019-04-21T01:04:04.836Z,101785.52
2019-04-21T01:04:36.871Z,101787.08
2019-04-21T01:05:11.113Z,101788.73
2019-04-21T01:05:49.853Z,101789.94
2019-04-21T01:06:16.485Z,101786.77
2019-04-21T01:06:48.056Z,101770.83
2019-04-21T01:07:21.467Z,101782.48
2019-04-21T01:07:50.615Z,101787.55
2019-04-21T01:08:28.223Z,101782.98
2019-04-21T01:09:00.906Z,101787.55
2019-04-21T01:09:27.573Z,101785.25
2019-04-21T01:09:58.966Z,101784.19
2019-04-21T01:10:28.943Z,101781.73
2019-04-21T01:11:15.328Z,101785.90
2019-04-21T01:11:47.348Z,101786.55
2019-04-21T01:12:19.059Z,101785.89
2019-04-21T01:13:02.655Z,101788.34
2019-04-21T01:13:27.864Z,101785.63
2019-04-21T01:13:58.022Z,101785.63
2019-04-21T01:14:35.870Z,101779.01
2019-04-21T01:15:10.668Z,101787.42
2019-04-21T01:15:43.589Z,101785.86
2019-04-21T01:16:14.515Z,101788.22
2019-04-21T01:16:45.777Z,101785.41
2019-04-21T01:17:20.228Z,101782.64
2019-04-21T01:17:51.946Z,101777.82
2019-04-21T01:18:20.733Z,101778.32
2019-04-21T01:18:57.718Z,101770.23
2019-04-21T01:19:26.697Z,101784.60
2019-04-21T01:19:57.227Z,101776.71
2019-04-21T01:20:17.678Z,101784.10
2019-04-21T01:20:48.070Z,101778.42
2019-04-21T01:21:19.262Z,101774.91
2019-04-21T01:21:50.946Z,101774.91
2019-04-21T01:22:22.138Z,101776.21
2019-04-21T01:22:53.716Z,101775.70
2019-04-21T01:23:25.551Z,101771.80
2019-04-21T01:24:07.941Z,101777.02
2019-04-21T01:24:34.712Z,101774.81
2019-04-21T01:25:14.467Z,101771.30
2019-04-21T01:25:46.053Z,101774.25
2019-04-21T01:26:22.641Z,101774.55
2019-04-21T01:26:59.621Z,101775.29
2019-04-21T01:27:39.810Z,101773.09
2019-04-21T01:28:03.875Z,101753.90
2019-04-21T01:28:41.045Z,101753.90
2019-04-21T01:29:12.095Z,101770.38
2019-04-21T01:29:53.100Z,101770.38
2019-04-21T01:30:31.196Z,101771.92
2019-04-21T01:30:57.125Z,101773.56
2019-04-21T01:31:30.608Z,101770.09
2019-04-21T01:32:13.454Z,101781.12
2019-04-21T01:32:46.843Z,101761.44
2019-04-21T01:33:16.327Z,101769.93
2019-04-21T01:33:50.680Z,101769.83
2019-04-21T01:34:20.595Z,101769.77
2019-04-21T01:34:54.014Z,101776.69
2019-04-21T01:35:25.437Z,101776.59
2019-04-21T01:35:58.097Z,101778.70
2019-04-21T01:36:33.687Z,101770.97
2019-04-21T01:36:58.453Z,101773.68
2019-04-21T01:37:47.953Z,101773.34
2019-04-21T01:38:14.247Z,101773.44
2019-04-21T01:38:52.425Z,101780.46
2019-04-21T01:39:22.532Z,101771.40
2019-04-21T01:39:53.264Z,101775.01
2019-04-21T01:40:28.987Z,101776.88
2019-04-21T01:41:21.020Z,101759.90
2019-04-21T01:42:03.303Z,101779.25
2019-04-21T01:42:38.176Z,101760.56
2019-04-21T01:43:14.817Z,101782.12
2019-04-21T01:43:45.806Z,101782.12
2019-04-21T01:44:24.969Z,101774.37
2019-04-21T01:44:54.868Z,101788.73
2019-04-21T01:45:22.392Z,101789.55
2019-04-21T01:45:53.586Z,101760.30
2019-04-21T01:46:29.629Z,101785.30
2019-04-21T01:46:58.233Z,101783.16
2019-04-21T01:47:36.106Z,101790.09
2019-04-21T01:48:05.797Z,101769.59
2019-04-21T01:48:39.118Z,101771.40
2019-04-21T01:49:13.140Z,101771.40
2019-04-21T01:49:44.935Z,101787.27
2019-04-21T01:50:26.053Z,101768.55
2019-04-21T01:50:55.587Z,101765.23
2019-04-21T01:51:45.376Z,101765.23
2019-04-21T01:53:36.435Z,101782.78
2019-04-21T01:54:16.000Z,101775.43
2019-04-21T01:54:55.861Z,101784.48
2019-04-21T01:55:28.884Z,101785.48
2019-04-21T01:56:11.731Z,101783.78
2019-04-21T01:57:02.121Z,101789.40
2019-04-21T01:57:34.707Z,101788.76
2019-04-21T01:58:09.361Z,101784.60
2019-04-21T01:58:41.676Z,101769.42
2019-04-21T01:59:08.975Z,101789.27
2019-04-21T01:59:54.350Z,101784.95
2019-04-21T02:00:30.504Z,101788.12
2019-04-21T02:01:03.601Z,101788.12
2019-04-21T02:01:38.837Z,101778.84
2019-04-21T02:02:11.008Z,101788.94
2019-04-21T02:02:48.635Z,101788.94
2019-04-21T02:03:38.845Z,101786.33
2019-04-21T02:03:58.435Z,101782.25
2019-04-21T02:04:29.238Z,101786.97
2019-04-21T02:05:03.212Z,101766.96
2019-04-21T02:05:39.357Z,101766.96
2019-04-21T02:06:13.306Z,101761.18
2019-04-21T02:06:41.300Z,101782.87
2019-04-21T02:07:11.625Z,101780.11
2019-04-21T02:07:45.875Z,101779.11
2019-04-21T02:08:15.524Z,101779.11
2019-04-21T02:08:49.305Z,101781.22
2019-04-21T02:09:27.373Z,101785.47
2019-04-21T02:10:05.143Z,101785.47
2019-04-21T02:10:40.386Z,101780.55
2019-04-21T02:11:13.866Z,101774.43
2019-04-21T02:11:43.359Z,101756.79
2019-04-21T02:12:18.925Z,101756.79
2019-04-21T02:12:51.066Z,101778.69
2019-04-21T02:13:17.647Z,101773.06
2019-04-21T02:14:03.913Z,101778.78
2019-04-21T02:14:31.547Z,101775.73
2019-04-21T02:15:07.717Z,101775.73
2019-04-21T02:15:46.971Z,101774.12
2019-04-21T02:16:11.424Z,101777.70
2019-04-21T02:16:40.553Z,101771.62
2019-04-21T02:17:18.700Z,101777.70
2019-04-21T02:17:46.998Z,101772.48
2019-04-21T02:18:22.093Z,101772.02
2019-04-21T02:18:54.469Z,101775.03
2019-04-21T02:19:27.856Z,101775.03
2019-04-21T02:19:55.177Z,101781.55
2019-04-21T02:20:25.737Z,101773.37
2019-04-21T02:20:53.851Z,101773.37
2019-04-21T02:21:36.967Z,101753.86
2019-04-21T02:22:12.541Z,101775.55
2019-04-21T02:23:07.418Z,101768.60
2019-04-21T02:23:34.354Z,101774.38
2019-04-21T02:23:58.697Z,101780.34
2019-04-21T02:24:36.496Z,101778.44
2019-04-21T02:25:06.375Z,101762.35
2019-04-21T02:25:50.980Z,101773.66
2019-04-21T02:26:09.732Z,101772.34
2019-04-21T02:26:44.379Z,101775.13
2019-04-21T02:27:14.872Z,101765.73
2019-04-21T02:27:51.551Z,101760.61
2019-04-21T02:28:33.045Z,101784.58
2019-04-21T02:28:57.436Z,101758.70
2019-04-21T02:29:33.004Z,101758.70
2019-04-21T02:30:00.066Z,101778.90
2019-04-21T02:30:52.167Z,101772.78
2019-04-21T02:31:45.259Z,101773.28
2019-04-21T02:32:27.904Z,101774.14
2019-04-21T02:33:03.780Z,101772.94
2019-04-21T02:33:38.722Z,101750.41
2019-04-21T02:34:02.719Z,101771.40
2019-04-21T02:35:14.231Z,101749.11
2019-04-21T02:36:00.542Z,101759.00
2019-04-21T02:36:53.479Z,101769.86
2019-04-21T02:38:03.842Z,101750.11
2019-04-21T02:38:33.836Z,101770.29
2019-04-21T02:39:11.507Z,101754.18
2019-04-21T02:39:40.597Z,101754.18
2019-04-21T02:40:17.358Z,101771.12
2019-04-21T02:41:06.060Z,101770.22
2019-04-21T02:41:52.130Z,101770.22
2019-04-21T02:42:18.687Z,101767.27
2019-04-21T02:42:56.111Z,101770.88
2019-04-21T02:44:02.255Z,101772.28
2019-04-21T02:44:38.614Z,101751.39
2019-04-21T02:45:43.480Z,101765.82
2019-04-21T02:46:13.013Z,101757.93
2019-04-21T02:46:45.406Z,101754.30
2019-04-21T02:47:34.545Z,101754.30
2019-04-21T02:47:54.851Z,101762.15
2019-04-21T02:49:11.108Z,101764.75
2019-04-21T02:49:45.237Z,101743.36
2019-04-21T02:50:45.178Z,101756.03
2019-04-21T02:51:12.562Z,101756.03
2019-04-21T02:51:50.948Z,101759.04
2019-04-21T02:52:30.082Z,101759.04
2019-04-21T02:53:32.390Z,101759.37
2019-04-21T02:54:35.951Z,101759.28
2019-04-21T02:54:48.314Z,101738.48
2019-04-21T02:55:02.375Z,101757.47
2019-04-21T02:56:13.894Z,101755.11
2019-04-21T02:56:43.808Z,101758.12
2019-04-21T02:57:49.403Z,101756.65
2019-04-21T02:58:42.160Z,101760.06
2019-04-21T02:59:20.012Z,101760.91
2019-04-21T03:00:06.472Z,101743.66
2019-04-21T03:00:32.867Z,101747.07
2019-04-21T03:01:23.643Z,101747.07
2019-04-21T03:02:03.611Z,101741.76
2019-04-21T03:03:21.380Z,101760.38
2019-04-21T03:03:58.815Z,101755.20
2019-04-21T03:04:34.619Z,101763.36
2019-04-21T03:05:29.135Z,101751.63
2019-04-21T03:06:50.546Z,101764.94
2019-04-21T03:08:34.284Z,101762.13
2019-04-21T03:09:15.420Z,101762.13
2019-04-21T03:10:12.316Z,101765.16
2019-04-21T03:10:52.937Z,101764.09
2019-04-21T03:11:21.981Z,101764.48
2019-04-21T03:11:56.066Z,101765.33
2019-04-21T03:13:03.648Z,101766.42
2019-04-21T03:14:47.620Z,101758.56
2019-04-21T03:16:42.999Z,101764.41
2019-04-21T03:17:59.819Z,101768.48
2019-04-21T03:19:48.235Z,101758.83
2019-04-21T03:20:14.814Z,101757.47
2019-04-21T03:21:48.991Z,101751.55
2019-04-21T03:22:21.007Z,101757.03
2019-04-21T03:22:59.944Z,101757.03
2019-04-21T03:23:31.970Z,101755.53
2019-04-21T03:23:59.585Z,101756.00
2019-04-21T03:25:20.377Z,101756.00
2019-04-21T03:26:24.219Z,101729.67
2019-04-21T03:27:04.836Z,101742.94
2019-04-21T03:27:56.910Z,101727.73
2019-04-21T03:28:29.819Z,101724.72
2019-04-21T03:30:13.277Z,101742.07
2019-04-21T03:31:06.736Z,101745.18
2019-04-21T03:35:00.293Z,101744.98
2019-04-21T03:36:56.906Z,101748.35
2019-04-21T03:37:32.955Z,101748.35
2019-04-21T03:38:17.273Z,101744.95
2019-04-21T03:38:31.821Z,101744.95
2019-04-21T03:39:31.252Z,101725.39
2019-04-21T03:40:03.319Z,101725.39
2019-04-21T03:40:33.171Z,101719.61
2019-04-21T03:41:12.368Z,101719.21
2019-04-21T03:41:48.837Z,101737.99
2019-04-21T03:42:47.711Z,101734.55
2019-04-21T03:43:38.307Z,101734.55
2019-04-21T03:44:02.955Z,101740.53
2019-04-21T03:44:32.606Z,101731.51
2019-04-21T03:45:03.640Z,101738.09
2019-04-21T03:45:39.016Z,101738.09
2019-04-21T03:46:08.174Z,101724.95
2019-04-21T03:46:47.392Z,101739.00
2019-04-21T03:47:43.489Z,101742.10
2019-04-21T03:48:35.631Z,101735.42
2019-04-21T03:50:05.229Z,101720.15
2019-04-21T03:50:29.667Z,101733.22
2019-04-21T03:51:15.857Z,101733.22
2019-04-21T03:52:53.280Z,101742.50
2019-04-21T03:53:24.920Z,101742.50
2019-04-21T03:53:55.763Z,101743.64
2019-04-21T03:54:26.909Z,101743.64
2019-04-21T03:57:17.818Z,101737.02
2019-04-21T03:58:02.075Z,101736.62
2019-04-21T03:58:19.666Z,101721.84
2019-04-21T03:58:54.163Z,101740.30
2019-04-21T03:59:48.308Z,101746.92
2019-04-21T04:00:33.639Z,101746.92
2019-04-21T04:01:11.418Z,101738.29
2019-04-21T04:02:06.783Z,101738.29
2019-04-21T04:02:36.628Z,101742.10
2019-04-21T04:03:26.780Z,101742.10
2019-04-21T04:04:30.680Z,101739.39
2019-04-21T04:04:52.802Z,101739.00
2019-04-21T04:05:55.587Z,101739.00
2019-04-21T04:06:28.045Z,101744.31
2019-04-21T04:07:11.403Z,101724.13
2019-04-21T04:07:52.029Z,101736.48
2019-04-21T04:08:37.271Z,101718.11
2019-04-21T04:09:52.739Z,101740.16
2019-04-21T04:10:28.914Z,101740.16
2019-04-21T04:11:04.632Z,101733.34
2019-04-21T04:11:58.449Z,101731.13
2019-04-21T04:12:38.199Z,101734.47
2019-04-21T04:13:05.444Z,101734.47
2019-04-21T04:14:44.443Z,101736.04
2019-04-21T04:15:22.805Z,101736.04
2019-04-21T04:15:56.192Z,101730.66
2019-04-21T04:17:04.859Z,101731.73
2019-04-21T04:18:07.726Z,101704.20
2019-04-21T04:18:48.876Z,101714.45
2019-04-21T04:19:09.150Z,101716.42
2019-04-21T04:20:22.429Z,101728.94
2019-04-21T04:21:00.358Z,101728.94
2019-04-21T04:21:28.373Z,101726.16
2019-04-21T04:22:15.400Z,101729.76
2019-04-21T04:22:38.848Z,101729.76
2019-04-21T04:23:03.362Z,101709.38
2019-04-21T04:25:49.812Z,101707.34
2019-04-21T04:26:26.045Z,101733.61
2019-04-21T04:26:55.186Z,101712.72
2019-04-21T04:28:49.772Z,101712.72
2019-04-21T04:29:40.108Z,101724.02
2019-04-21T04:30:47.607Z,101731.19
2019-04-21T04:32:30.688Z,101735.11
2019-04-21T04:32:59.219Z,101735.11
2019-04-21T04:34:14.611Z,101724.57
2019-04-21T04:34:48.498Z,101734.27
2019-04-21T04:35:14.445Z,101734.27
2019-04-21T04:36:50.284Z,101718.19
2019-04-21T04:37:15.293Z,101729.55
2019-04-21T04:38:39.240Z,101713.31
2019-04-21T04:40:05.801Z,101732.66
2019-04-21T04:40:39.419Z,101732.66
2019-04-21T04:41:28.953Z,101734.05
2019-04-21T04:44:46.632Z,101735.36
2019-04-21T04:46:06.707Z,101727.29
2019-04-21T04:46:52.821Z,101721.91
2019-04-21T04:47:22.803Z,101721.91
2019-04-21T04:47:56.554Z,101730.21
2019-04-21T04:48:19.456Z,101732.91
2019-04-21T04:49:10.978Z,101732.91
2019-04-21T04:49:42.169Z,101734.78
2019-04-21T04:50:15.463Z,101732.42
2019-04-21T04:51:14.499Z,101714.64
2019-04-21T04:51:58.639Z,101712.94
2019-04-21T04:52:48.715Z,101733.67
2019-04-21T04:53:50.684Z,101732.22
2019-04-21T04:54:41.822Z,101732.22
2019-04-21T04:55:01.796Z,101713.44
2019-04-21T04:55:43.394Z,101717.52
2019-04-21T04:56:12.162Z,101717.52
2019-04-21T04:56:54.235Z,101729.91
2019-04-21T04:57:45.520Z,101720.92
2019-04-21T05:00:14.289Z,101722.41
2019-04-21T05:00:54.590Z,101725.75
2019-04-21T05:01:29.806Z,101701.51
2019-04-21T05:01:53.136Z,101721.02
2019-04-21T05:02:33.707Z,101721.70
2019-04-21T05:02:48.934Z,101713.27
2019-04-21T05:03:40.146Z,101712.03
2019-04-21T05:04:00.391Z,101710.97
2019-04-21T05:04:37.463Z,101720.59
2019-04-21T05:05:19.420Z,101692.09
2019-04-21T05:06:25.194Z,101717.95
2019-04-21T05:07:21.332Z,101701.91
2019-04-21T05:08:34.533Z,101710.05
2019-04-21T05:09:07.923Z,101713.80
2019-04-21T05:09:31.970Z,101707.48
2019-04-21T05:09:59.508Z,101695.31
2019-04-21T05:10:47.596Z,101710.97
2019-04-21T05:11:28.365Z,101710.97
2019-04-21T05:12:11.876Z,101715.66
2019-04-21T05:13:06.214Z,101712.70
2019-04-21T05:13:29.229Z,101713.82
2019-04-21T05:14:02.689Z,101713.00
2019-04-21T05:14:30.368Z,101715.36
2019-04-21T05:15:10.133Z,101720.72
2019-04-21T05:15:41.698Z,101711.66
2019-04-21T05:16:11.832Z,101715.72
2019-04-21T05:17:52.484Z,101712.23
2019-04-21T05:18:25.142Z,101693.38
2019-04-21T05:19:04.109Z,101693.38
2019-04-21T05:20:26.094Z,101711.59
2019-04-21T05:21:12.950Z,101712.13
2019-04-21T05:22:17.197Z,101713.73
2019-04-21T05:22:45.936Z,101712.92
2019-04-21T05:23:11.955Z,101714.86
2019-04-21T05:23:45.608Z,101709.67
2019-04-21T05:24:16.512Z,101709.75
2019-04-21T05:24:50.956Z,101708.45
2019-04-21T05:25:23.056Z,101710.78
2019-04-21T05:25:55.780Z,101707.44
2019-04-21T05:26:25.804Z,101705.77
2019-04-21T05:26:59.576Z,101710.67
2019-04-21T05:27:33.555Z,101702.45
2019-04-21T05:28:09.057Z,101707.01
2019-04-21T05:28:41.893Z,101706.32
2019-04-21T05:29:13.225Z,101711.72
2019-04-21T05:30:03.193Z,101703.45
2019-04-21T05:30:33.824Z,101695.64
2019-04-21T05:31:15.166Z,101704.94
2019-04-21T05:31:46.310Z,101704.20
2019-04-21T05:32:28.292Z,101702.53
2019-04-21T05:33:05.614Z,101704.83
2019-04-21T05:33:46.004Z,101701.52
2019-04-21T05:34:22.035Z,101705.56
2019-04-21T05:34:56.898Z,101697.91
2019-04-21T05:35:45.290Z,101695.50
2019-04-21T05:36:20.380Z,101695.63
2019-04-21T05:37:03.950Z,101691.48
2019-04-21T05:37:35.402Z,101695.13
2019-04-21T05:38:10.594Z,101686.53
2019-04-21T05:38:47.777Z,101684.93
2019-04-21T05:39:33.594Z,101689.81
2019-04-21T05:40:10.242Z,101688.66
2019-04-21T05:40:41.455Z,101688.36
2019-04-21T05:41:14.362Z,101687.95
2019-04-21T05:41:43.204Z,101682.34
2019-04-21T05:42:24.993Z,101683.37
2019-04-21T05:42:54.891Z,101690.97
2019-04-21T05:43:36.094Z,101690.61
2019-04-21T05:44:03.798Z,101685.03
2019-04-21T05:44:57.154Z,101687.69
2019-04-21T05:45:19.570Z,101683.47
2019-04-21T05:45:47.414Z,101685.76
2019-04-21T05:46:21.269Z,101677.11
2019-04-21T05:46:59.402Z,101680.34
2019-04-21T05:47:34.907Z,101675.28
2019-04-21T05:48:11.697Z,101679.81
2019-04-21T05:48:39.651Z,101679.03
2019-04-21T05:49:10.985Z,101673.45
2019-04-21T05:49:49.840Z,101676.67
2019-04-21T05:50:23.840Z,101671.06
2019-04-21T05:50:58.879Z,101666.79
2019-04-21T05:51:33.756Z,101668.22
2019-04-21T05:52:05.528Z,101663.94
2019-04-21T05:52:35.654Z,101665.37
2019-04-21T05:53:20.241Z,101663.76
2019-04-21T05:53:49.270Z,101662.97
2019-04-21T05:54:29.642Z,101666.23
2019-04-21T05:54:57.807Z,101663.72
2019-04-21T05:55:34.057Z,101665.55
2019-04-21T05:56:06.193Z,101659.55
2019-04-21T05:56:35.166Z,101660.08
2019-04-21T05:57:05.275Z,101661.05
2019-04-21T05:57:44.231Z,101665.52
2019-04-21T05:58:27.312Z,101662.51
2019-04-21T05:58:43.993Z,101659.95
2019-04-21T05:59:15.162Z,101658.34
2019-04-21T05:59:49.157Z,101661.98
2019-04-21T06:00:39.704Z,101659.49
2019-04-21T06:01:42.032Z,101658.39
2019-04-21T06:02:52.091Z,101659.96
2019-04-21T06:03:29.247Z,101653.47
2019-04-21T06:03:57.539Z,101653.58
2019-04-21T06:04:52.338Z,101653.68
2019-04-21T06:06:13.966Z,101647.81
2019-04-21T06:06:39.681Z,101654.09
2019-04-21T06:07:21.549Z,101653.23
2019-04-21T06:07:47.226Z,101650.68
2019-04-21T06:08:18.127Z,101652.58
2019-04-21T06:08:53.671Z,101652.23
2019-04-21T06:09:30.454Z,101648.81
2019-04-21T06:10:45.934Z,101653.41
2019-04-21T06:11:19.066Z,101652.69
2019-04-21T06:11:45.797Z,101646.31
2019-04-21T06:12:14.698Z,101646.31
2019-04-21T06:12:52.262Z,101655.16
2019-04-21T06:13:33.452Z,101654.85
2019-04-21T06:14:31.181Z,101648.52
2019-04-21T06:15:03.830Z,101651.24
2019-04-21T06:15:39.610Z,101654.88
2019-04-21T06:16:07.308Z,101653.72
2019-04-21T06:16:49.457Z,101657.28
2019-04-21T06:17:19.790Z,101655.20
2019-04-21T06:17:52.203Z,101651.77
2019-04-21T06:18:27.195Z,101652.73
2019-04-21T06:19:38.580Z,101640.48
2019-04-21T06:20:01.884Z,101640.48
2019-04-21T06:20:35.475Z,101654.98
2019-04-21T06:21:40.053Z,101655.21
2019-04-21T06:22:11.911Z,101659.25
2019-04-21T06:22:50.567Z,101656.02
2019-04-21T06:23:28.717Z,101656.02
2019-04-21T06:23:51.440Z,101653.92
2019-04-21T06:24:39.038Z,101657.55
2019-04-21T06:26:17.904Z,101654.84
2019-04-21T06:26:56.269Z,101654.84
2019-04-21T06:27:16.341Z,101652.34
2019-04-21T06:27:44.400Z,101652.43
2019-04-21T06:28:21.026Z,101656.05
2019-04-21T06:29:03.580Z,101652.64
2019-04-21T06:29:30.215Z,101656.69
2019-04-21T06:30:01.860Z,101654.56
2019-04-21T06:30:42.626Z,101657.76
2019-04-21T06:31:18.096Z,101653.13
2019-04-21T06:32:30.373Z,101655.40
2019-04-21T06:33:20.195Z,101655.99
2019-04-21T06:33:50.478Z,101662.70
2019-04-21T06:34:25.031Z,101658.84
2019-04-21T06:35:23.772Z,101653.72
2019-04-21T06:36:56.676Z,101656.86
2019-04-21T06:37:21.656Z,101656.94
2019-04-21T06:37:59.887Z,101654.00
2019-04-21T06:38:25.485Z,101648.34
2019-04-21T06:39:12.046Z,101651.06
2019-04-21T06:39:34.852Z,101652.02
2019-04-21T06:40:40.678Z,101643.51
2019-04-21T06:41:05.095Z,101643.51
2019-04-21T06:41:40.919Z,101629.23
2019-04-21T06:42:09.088Z,101649.39
2019-04-21T06:42:50.247Z,101645.05
2019-04-21T06:43:27.419Z,101628.68
2019-04-21T06:43:56.262Z,101629.64
2019-04-21T06:44:20.325Z,101629.64
2019-04-21T06:45:03.763Z,101647.56
2019-04-21T06:45:34.870Z,101646.02
2019-04-21T06:46:08.980Z,101646.02
2019-04-21T06:46:40.463Z,101642.63
2019-04-21T06:47:16.283Z,101641.80
2019-04-21T06:48:18.444Z,101638.52
2019-04-21T06:48:57.049Z,101634.59
2019-04-21T06:49:22.275Z,101617.80
2019-04-21T06:49:58.977Z,101633.11
2019-04-21T06:50:34.621Z,101633.11
2019-04-21T06:51:10.727Z,101632.34
2019-04-21T06:51:33.734Z,101634.19
2019-04-21T06:52:20.622Z,101618.61
2019-04-21T06:52:50.007Z,101610.41
2019-04-21T06:53:20.674Z,101610.41
2019-04-21T06:53:52.697Z,101624.40
2019-04-21T06:54:23.904Z,101614.14
2019-04-21T06:54:56.108Z,101629.41
2019-04-21T06:55:27.900Z,101621.22
2019-04-21T06:56:04.627Z,101621.22
2019-04-21T06:57:16.507Z,101627.52
2019-04-21T06:57:39.968Z,101625.80
2019-04-21T06:58:10.162Z,101621.84
2019-04-21T06:58:48.151Z,101634.78
2019-04-21T06:59:17.048Z,101631.73
2019-04-21T06:59:54.348Z,101609.59
2019-04-21T07:00:24.744Z,101619.42
2019-04-21T07:01:00.467Z,101624.91
2019-04-21T07:01:39.032Z,101623.27
2019-04-21T07:02:24.337Z,101624.61
2019-04-21T07:03:25.346Z,101625.63
2019-04-21T07:04:24.252Z,101624.84
2019-04-21T07:04:54.723Z,101623.17
2019-04-21T07:05:34.644Z,101623.17
2019-04-21T07:06:06.533Z,101619.31
2019-04-21T07:06:36.272Z,101619.80
2019-04-21T07:07:08.316Z,101614.95
2019-04-21T07:07:43.404Z,101616.37
2019-04-21T07:08:30.919Z,101616.01
2019-04-21T07:08:53.260Z,101615.59
2019-04-21T07:09:25.707Z,101612.59
2019-04-21T07:09:55.072Z,101612.17
2019-04-21T07:10:30.733Z,101617.08
2019-04-21T07:10:56.741Z,101605.22
2019-04-21T07:11:33.727Z,101593.65
2019-04-21T07:12:10.086Z,101593.65
2019-04-21T07:12:39.401Z,101608.48
2019-04-21T07:13:08.112Z,101609.40
2019-04-21T07:13:49.135Z,101606.39
2019-04-21T07:14:52.699Z,101605.17
2019-04-21T07:15:30.405Z,101606.50
2019-04-21T07:16:06.693Z,101604.34
2019-04-21T07:16:32.133Z,101606.60
2019-04-21T07:17:11.436Z,101605.77
2019-04-21T07:18:13.691Z,101598.38
2019-04-21T07:18:51.254Z,101601.08
2019-04-21T07:19:42.779Z,101602.44
2019-04-21T07:19:55.376Z,101606.46
2019-04-21T07:20:22.004Z,101598.58
2019-04-21T07:21:02.787Z,101600.39
2019-04-21T07:21:33.823Z,101598.27
2019-04-21T07:22:12.337Z,101594.36
2019-04-21T07:22:44.618Z,101597.48
2019-04-21T07:23:16.271Z,101596.25
2019-04-21T07:23:46.251Z,101580.72
2019-04-21T07:24:56.019Z,101589.33
2019-04-21T07:25:27.972Z,101588.48
2019-04-21T07:26:05.819Z,101581.88
2019-04-21T07:26:36.712Z,101587.69
2019-04-21T07:27:08.977Z,101574.52
2019-04-21T07:27:43.052Z,101578.06
2019-04-21T07:28:12.843Z,101582.11
2019-04-21T07:28:52.707Z,101577.30
2019-04-21T07:29:20.636Z,101573.81
2019-04-21T07:29:55.157Z,101580.03
2019-04-21T07:30:31.728Z,101581.41
2019-04-21T07:31:03.657Z,101571.27
2019-04-21T07:31:40.237Z,101577.92
2019-04-21T07:32:22.186Z,101579.30
2019-04-21T07:32:44.209Z,101576.27
2019-04-21T07:33:33.189Z,101574.09
2019-04-21T07:34:51.516Z,101568.44
2019-04-21T07:35:28.123Z,101566.73
2019-04-21T07:35:59.385Z,101567.20
2019-04-21T07:36:39.793Z,101573.86
2019-04-21T07:37:20.682Z,101568.61
2019-04-21T07:37:35.470Z,101568.66
2019-04-21T07:38:12.071Z,101567.81
2019-04-21T07:38:41.268Z,101567.42
2019-04-21T07:39:15.295Z,101568.33